Exchange, West Virginia
Current Conditions -  °F | °C
As of 11:15 AM on Tuesday 21 Oct 2014 (Local Time) from KW22 Reporting Station
Overcast Overcast  
Wind Chill: 50°   Ceiling: 500
Heat Index: 50°   Visibility: 10mi
Dew Point: 50°   Wind: 0mph
Humidity: 100%   Direction: NA
Pressure: 29.9"   Gusts: NA
Location:  38.77°N, 80.72°W
Report Text: KW22 211515Z AUTO 00000KT 10SM BKN005 OVC009 10/10 A2990 RMK AO2
Loading
Personal Weather Stations






























Interactive Weather Map New forecast layout! Learn more

10-Day Weather Forecast

Advertisements
Track Severe Weather on mobile